sensor_id;sensor_type;location;lat;lon;timestamp;temperature;humidity
45619;DHT22;31343;47.520;19.144;2023-02-15T00:01:42;1.10;99.90
45619;DHT22;31343;47.520;19.144;2023-02-15T00:04:09;1.20;99.90
45619;DHT22;31343;47.520;19.144;2023-02-15T00:06:35;1.10;99.90
45619;DHT22;31343;47.520;19.144;2023-02-15T00:09:01;1.10;99.90
45619;DHT22;31343;47.520;19.144;2023-02-15T00:11:28;1.10;99.90
45619;DHT22;31343;47.520;19.144;2023-02-15T00:14:15;1.00;99.90
45619;DHT22;31343;47.520;19.144;2023-02-15T00:16:42;1.10;99.90
45619;DHT22;31343;47.520;19.144;2023-02-15T00:19:10;1.10;99.90
45619;DHT22;31343;47.520;19.144;2023-02-15T00:21:37;1.10;99.90
45619;DHT22;31343;47.520;19.144;2023-02-15T00:24:05;1.10;99.90
45619;DHT22;31343;47.520;19.144;2023-02-15T00:26:32;1.10;99.90
45619;DHT22;31343;47.520;19.144;2023-02-15T00:28:58;1.10;99.90
45619;DHT22;31343;47.520;19.144;2023-02-15T00:31:26;1.10;99.90
45619;DHT22;31343;47.520;19.144;2023-02-15T00:33:53;0.90;99.90
45619;DHT22;31343;47.520;19.144;2023-02-15T00:36:19;0.90;99.90
45619;DHT22;31343;47.520;19.144;2023-02-15T00:38:44;0.90;99.90
45619;DHT22;31343;47.520;19.144;2023-02-15T00:41:10;0.90;99.90
45619;DHT22;31343;47.520;19.144;2023-02-15T00:43:36;1.00;99.90
45619;DHT22;31343;47.520;19.144;2023-02-15T00:46:04;0.90;99.90
45619;DHT22;31343;47.520;19.144;2023-02-15T00:48:30;0.90;99.90
45619;DHT22;31343;47.520;19.144;2023-02-15T00:50:58;0.80;99.90
45619;DHT22;31343;47.520;19.144;2023-02-15T00:53:25;0.90;99.90
45619;DHT22;31343;47.520;19.144;2023-02-15T00:55:52;0.80;99.90
45619;DHT22;31343;47.520;19.144;2023-02-15T00:58:17;0.80;99.90
45619;DHT22;31343;47.520;19.144;2023-02-15T01:00:45;0.80;99.90
45619;DHT22;31343;47.520;19.144;2023-02-15T01:03:12;0.70;99.90
45619;DHT22;31343;47.520;19.144;2023-02-15T01:05:38;0.70;99.90
45619;DHT22;31343;47.520;19.144;2023-02-15T01:08:04;0.70;99.90
45619;DHT22;31343;47.520;19.144;2023-02-15T01:10:30;0.60;99.90
45619;DHT22;31343;47.520;19.144;2023-02-15T01:12:57;0.60;99.90
45619;DHT22;31343;47.520;19.144;2023-02-15T01:15:24;0.60;99.90
45619;DHT22;31343;47.520;19.144;2023-02-15T01:17:50;0.70;99.90
45619;DHT22;31343;47.520;19.144;2023-02-15T01:20:23;0.70;99.90
45619;DHT22;31343;47.520;19.144;2023-02-15T01:22:50;0.60;99.90
45619;DHT22;31343;47.520;19.144;2023-02-15T01:25:18;0.60;99.90
45619;DHT22;31343;47.520;19.144;2023-02-15T01:27:45;0.60;99.90
45619;DHT22;31343;47.520;19.144;2023-02-15T01:30:11;0.50;99.90
45619;DHT22;31343;47.520;19.144;2023-02-15T01:32:39;0.60;99.90
45619;DHT22;31343;47.520;19.144;2023-02-15T01:35:05;0.50;99.90
45619;DHT22;31343;47.520;19.144;2023-02-15T01:37:32;0.50;99.90
45619;DHT22;31343;47.520;19.144;2023-02-15T01:39:57;0.50;99.90
45619;DHT22;31343;47.520;19.144;2023-02-15T01:42:26;0.50;99.90
45619;DHT22;31343;47.520;19.144;2023-02-15T01:44:58;0.40;99.90
45619;DHT22;31343;47.520;19.144;2023-02-15T01:47:43;0.30;99.90
45619;DHT22;31343;47.520;19.144;2023-02-15T01:52:52;0.40;99.90
45619;DHT22;31343;47.520;19.144;2023-02-15T01:55:22;0.20;99.90
45619;DHT22;31343;47.520;19.144;2023-02-15T01:57:49;0.30;99.90
45619;DHT22;31343;47.520;19.144;2023-02-15T02:00:15;0.20;99.90
45619;DHT22;31343;47.520;19.144;2023-02-15T02:02:43;0.20;99.90
45619;DHT22;31343;47.520;19.144;2023-02-15T02:05:10;0.10;99.90
45619;DHT22;31343;47.520;19.144;2023-02-15T02:07:42;0.10;99.90
45619;DHT22;31343;47.520;19.144;2023-02-15T02:10:15;0.00;99.90
45619;DHT22;31343;47.520;19.144;2023-02-15T02:12:42;0.10;99.90
45619;DHT22;31343;47.520;19.144;2023-02-15T02:15:10;0.30;99.90
45619;DHT22;31343;47.520;19.144;2023-02-15T02:28:52;0.20;99.90
45619;DHT22;31343;47.520;19.144;2023-02-15T02:39:53;0.10;99.90
45619;DHT22;31343;47.520;19.144;2023-02-15T02:42:43;0.10;99.90
45619;DHT22;31343;47.520;19.144;2023-02-15T02:45:30;0.00;99.90
45619;DHT22;31343;47.520;19.144;2023-02-15T02:48:07;0.00;99.90
45619;DHT22;31343;47.520;19.144;2023-02-15T02:50:33;0.00;99.90
45619;DHT22;31343;47.520;19.144;2023-02-15T02:53:00;0.10;99.90
45619;DHT22;31343;47.520;19.144;2023-02-15T02:55:34;0.10;99.90
45619;DHT22;31343;47.520;19.144;2023-02-15T02:58:15;0.10;99.90
45619;DHT22;31343;47.520;19.144;2023-02-15T03:00:46;0.00;99.90
45619;DHT22;31343;47.520;19.144;2023-02-15T03:03:20;0.00;99.90
45619;DHT22;31343;47.520;19.144;2023-02-15T03:05:47;-0.10;99.90
45619;DHT22;31343;47.520;19.144;2023-02-15T03:08:16;-0.10;99.90
45619;DHT22;31343;47.520;19.144;2023-02-15T03:10:52;-0.20;99.90
45619;DHT22;31343;47.520;19.144;2023-02-15T03:13:19;-0.10;99.90
45619;DHT22;31343;47.520;19.144;2023-02-15T03:15:45;-0.10;99.90
45619;DHT22;31343;47.520;19.144;2023-02-15T03:18:45;-0.20;99.90
45619;DHT22;31343;47.520;19.144;2023-02-15T03:21:26;-0.30;99.90
45619;DHT22;31343;47.520;19.144;2023-02-15T03:23:57;-0.30;99.90
45619;DHT22;31343;47.520;19.144;2023-02-15T03:26:25;-0.30;99.90
45619;DHT22;31343;47.520;19.144;2023-02-15T03:28:54;-0.30;99.90
45619;DHT22;31343;47.520;19.144;2023-02-15T03:31:22;-0.40;99.90
45619;DHT22;31343;47.520;19.144;2023-02-15T03:34:02;-0.50;99.90
45619;DHT22;31343;47.520;19.144;2023-02-15T03:36:44;-0.60;99.90
45619;DHT22;31343;47.520;19.144;2023-02-15T03:39:33;-0.50;99.90
45619;DHT22;31343;47.520;19.144;2023-02-15T03:42:14;-0.50;99.90
45619;DHT22;31343;47.520;19.144;2023-02-15T03:47:34;-0.50;99.90
45619;DHT22;31343;47.520;19.144;2023-02-15T03:50:12;-0.50;99.90
45619;DHT22;31343;47.520;19.144;2023-02-15T03:52:58;-0.50;99.90
45619;DHT22;31343;47.520;19.144;2023-02-15T03:55:25;-0.50;99.90
45619;DHT22;31343;47.520;19.144;2023-02-15T03:57:52;-0.50;99.90
45619;DHT22;31343;47.520;19.144;2023-02-15T04:00:47;-0.50;99.90
45619;DHT22;31343;47.520;19.144;2023-02-15T04:03:43;-0.50;99.90
45619;DHT22;31343;47.520;19.144;2023-02-15T04:06:10;-0.40;99.90
45619;DHT22;31343;47.520;19.144;2023-02-15T04:08:36;-0.50;99.90
45619;DHT22;31343;47.520;19.144;2023-02-15T04:11:21;-0.40;99.90
45619;DHT22;31343;47.520;19.144;2023-02-15T04:13:47;-0.40;99.90
45619;DHT22;31343;47.520;19.144;2023-02-15T04:16:12;-0.50;99.90
45619;DHT22;31343;47.520;19.144;2023-02-15T04:18:41;-0.50;99.90
45619;DHT22;31343;47.520;19.144;2023-02-15T04:21:28;-0.40;99.90
45619;DHT22;31343;47.520;19.144;2023-02-15T04:24:13;-0.50;99.90
45619;DHT22;31343;47.520;19.144;2023-02-15T04:26:58;-0.40;99.90
45619;DHT22;31343;47.520;19.144;2023-02-15T04:29:26;-0.40;99.90
45619;DHT22;31343;47.520;19.144;2023-02-15T04:31:53;-0.50;99.90
45619;DHT22;31343;47.520;19.144;2023-02-15T04:34:19;-0.50;99.90
45619;DHT22;31343;47.520;19.144;2023-02-15T04:36:45;-0.40;99.90
45619;DHT22;31343;47.520;19.144;2023-02-15T04:39:16;-0.50;99.90
45619;DHT22;31343;47.520;19.144;2023-02-15T04:41:43;-0.60;99.90
45619;DHT22;31343;47.520;19.144;2023-02-15T04:44:10;-0.60;99.90
45619;DHT22;31343;47.520;19.144;2023-02-15T04:46:36;-0.50;99.90
45619;DHT22;31343;47.520;19.144;2023-02-15T04:49:01;-0.60;99.90
45619;DHT22;31343;47.520;19.144;2023-02-15T04:51:28;-0.70;99.90
45619;DHT22;31343;47.520;19.144;2023-02-15T04:53:54;-0.80;99.90
45619;DHT22;31343;47.520;19.144;2023-02-15T04:56:20;-0.80;99.90
45619;DHT22;31343;47.520;19.144;2023-02-15T04:58:48;-0.70;99.90
45619;DHT22;31343;47.520;19.144;2023-02-15T05:01:14;-0.70;99.90
45619;DHT22;31343;47.520;19.144;2023-02-15T05:03:40;-0.70;99.90
45619;DHT22;31343;47.520;19.144;2023-02-15T05:06:07;-0.70;99.90
45619;DHT22;31343;47.520;19.144;2023-02-15T05:08:32;-0.70;99.90
45619;DHT22;31343;47.520;19.144;2023-02-15T05:10:58;-0.70;99.90
45619;DHT22;31343;47.520;19.144;2023-02-15T05:13:24;-0.70;99.90
45619;DHT22;31343;47.520;19.144;2023-02-15T05:15:53;-0.70;99.90
45619;DHT22;31343;47.520;19.144;2023-02-15T05:18:20;-0.70;99.90
45619;DHT22;31343;47.520;19.144;2023-02-15T05:20:46;-0.70;99.90
45619;DHT22;31343;47.520;19.144;2023-02-15T05:23:13;-0.70;99.90
45619;DHT22;31343;47.520;19.144;2023-02-15T05:25:39;-0.70;99.90
45619;DHT22;31343;47.520;19.144;2023-02-15T05:28:25;-0.80;99.90
45619;DHT22;31343;47.520;19.144;2023-02-15T05:31:13;-0.80;99.90
45619;DHT22;31343;47.520;19.144;2023-02-15T05:33:39;-0.70;99.90
45619;DHT22;31343;47.520;19.144;2023-02-15T05:36:07;-0.90;99.90
45619;DHT22;31343;47.520;19.144;2023-02-15T05:38:33;-0.80;99.90
45619;DHT22;31343;47.520;19.144;2023-02-15T05:40:59;-0.90;99.90
45619;DHT22;31343;47.520;19.144;2023-02-15T05:43:25;-1.00;99.90
45619;DHT22;31343;47.520;19.144;2023-02-15T05:45:53;-0.90;99.90
45619;DHT22;31343;47.520;19.144;2023-02-15T05:48:20;-0.90;99.90
45619;DHT22;31343;47.520;19.144;2023-02-15T05:50:46;-0.90;99.90
45619;DHT22;31343;47.520;19.144;2023-02-15T05:53:12;-0.80;99.90
45619;DHT22;31343;47.520;19.144;2023-02-15T05:55:39;-0.80;99.90
45619;DHT22;31343;47.520;19.144;2023-02-15T05:58:06;-0.70;99.90
45619;DHT22;31343;47.520;19.144;2023-02-15T06:00:32;-0.70;99.90
45619;DHT22;31343;47.520;19.144;2023-02-15T06:02:57;-0.70;99.90
45619;DHT22;31343;47.520;19.144;2023-02-15T06:05:23;-0.70;99.90
45619;DHT22;31343;47.520;19.144;2023-02-15T06:07:49;-0.80;99.90
45619;DHT22;31343;47.520;19.144;2023-02-15T06:10:16;-0.70;99.90
45619;DHT22;31343;47.520;19.144;2023-02-15T06:12:43;-0.70;99.90
45619;DHT22;31343;47.520;19.144;2023-02-15T06:15:09;-0.60;99.90
45619;DHT22;31343;47.520;19.144;2023-02-15T06:17:34;-0.70;99.90
45619;DHT22;31343;47.520;19.144;2023-02-15T06:20:00;-0.60;99.90
45619;DHT22;31343;47.520;19.144;2023-02-15T06:22:26;-0.80;99.90
45619;DHT22;31343;47.520;19.144;2023-02-15T06:24:51;-0.60;99.90
45619;DHT22;31343;47.520;19.144;2023-02-15T06:27:17;-0.50;99.90
45619;DHT22;31343;47.520;19.144;2023-02-15T06:29:43;-0.50;99.90
45619;DHT22;31343;47.520;19.144;2023-02-15T06:32:09;-0.20;99.90
45619;DHT22;31343;47.520;19.144;2023-02-15T06:34:34;0.30;99.90
45619;DHT22;31343;47.520;19.144;2023-02-15T06:37:00;0.90;99.90
45619;DHT22;31343;47.520;19.144;2023-02-15T06:39:26;1.60;99.90
45619;DHT22;31343;47.520;19.144;2023-02-15T06:41:52;2.40;99.90
45619;DHT22;31343;47.520;19.144;2023-02-15T06:44:18;3.00;99.90
45619;DHT22;31343;47.520;19.144;2023-02-15T06:46:44;3.60;99.90
45619;DHT22;31343;47.520;19.144;2023-02-15T06:49:10;3.90;99.90
45619;DHT22;31343;47.520;19.144;2023-02-15T06:51:35;4.60;99.90
45619;DHT22;31343;47.520;19.144;2023-02-15T06:54:02;5.00;99.90
45619;DHT22;31343;47.520;19.144;2023-02-15T06:56:29;5.70;99.90
45619;DHT22;31343;47.520;19.144;2023-02-15T06:58:55;5.60;99.90
45619;DHT22;31343;47.520;19.144;2023-02-15T07:01:22;5.40;99.90
45619;DHT22;31343;47.520;19.144;2023-02-15T07:03:47;5.50;99.90
45619;DHT22;31343;47.520;19.144;2023-02-15T07:06:13;5.80;99.90
45619;DHT22;31343;47.520;19.144;2023-02-15T07:08:39;6.90;99.60
45619;DHT22;31343;47.520;19.144;2023-02-15T07:11:06;7.90;98.00
45619;DHT22;31343;47.520;19.144;2023-02-15T07:13:50;8.20;96.30
45619;DHT22;31343;47.520;19.144;2023-02-15T07:16:18;7.80;97.20
45619;DHT22;31343;47.520;19.144;2023-02-15T07:18:44;8.00;95.60
45619;DHT22;31343;47.520;19.144;2023-02-15T07:21:09;8.40;96.20
45619;DHT22;31343;47.520;19.144;2023-02-15T07:23:39;8.30;96.20
45619;DHT22;31343;47.520;19.144;2023-02-15T07:26:06;8.10;95.80
45619;DHT22;31343;47.520;19.144;2023-02-15T07:28:34;8.70;95.90
45619;DHT22;31343;47.520;19.144;2023-02-15T07:31:04;9.10;94.70
45619;DHT22;31343;47.520;19.144;2023-02-15T07:33:31;9.30;94.60
45619;DHT22;31343;47.520;19.144;2023-02-15T07:35:59;9.00;94.50
45619;DHT22;31343;47.520;19.144;2023-02-15T07:38:31;9.20;94.70
45619;DHT22;31343;47.520;19.144;2023-02-15T07:41:06;9.40;94.30
45619;DHT22;31343;47.520;19.144;2023-02-15T07:43:35;8.60;95.10
45619;DHT22;31343;47.520;19.144;2023-02-15T07:46:03;7.30;97.30
45619;DHT22;31343;47.520;19.144;2023-02-15T07:48:29;6.90;98.30
45619;DHT22;31343;47.520;19.144;2023-02-15T07:50:59;6.80;99.30
45619;DHT22;31343;47.520;19.144;2023-02-15T07:53:25;6.60;99.80
45619;DHT22;31343;47.520;19.144;2023-02-15T07:55:50;6.80;99.90
45619;DHT22;31343;47.520;19.144;2023-02-15T07:58:18;6.50;99.90
45619;DHT22;31343;47.520;19.144;2023-02-15T08:00:44;6.70;99.90
45619;DHT22;31343;47.520;19.144;2023-02-15T08:03:25;7.00;99.90
45619;DHT22;31343;47.520;19.144;2023-02-15T08:05:58;6.60;99.90
45619;DHT22;31343;47.520;19.144;2023-02-15T08:08:30;6.40;99.90
45619;DHT22;31343;47.520;19.144;2023-02-15T08:21:43;6.40;99.90
45619;DHT22;31343;47.520;19.144;2023-02-15T08:24:10;6.30;99.90
45619;DHT22;31343;47.520;19.144;2023-02-15T08:26:37;6.60;99.90
45619;DHT22;31343;47.520;19.144;2023-02-15T08:29:04;6.60;99.90
45619;DHT22;31343;47.520;19.144;2023-02-15T08:31:30;6.90;99.90
45619;DHT22;31343;47.520;19.144;2023-02-15T08:33:57;6.70;99.90
45619;DHT22;31343;47.520;19.144;2023-02-15T08:36:28;6.90;99.90
45619;DHT22;31343;47.520;19.144;2023-02-15T08:38:56;6.90;99.90
45619;DHT22;31343;47.520;19.144;2023-02-15T08:41:25;7.00;99.90
45619;DHT22;31343;47.520;19.144;2023-02-15T08:43:56;7.10;99.90
45619;DHT22;31343;47.520;19.144;2023-02-15T08:46:29;7.10;99.90
45619;DHT22;31343;47.520;19.144;2023-02-15T08:48:56;7.00;99.90
45619;DHT22;31343;47.520;19.144;2023-02-15T08:51:24;7.10;99.90
45619;DHT22;31343;47.520;19.144;2023-02-15T08:53:52;7.10;99.90
45619;DHT22;31343;47.520;19.144;2023-02-15T08:56:22;6.90;99.90
45619;DHT22;31343;47.520;19.144;2023-02-15T08:58:48;7.10;99.90
45619;DHT22;31343;47.520;19.144;2023-02-15T09:01:16;7.10;99.90
45619;DHT22;31343;47.520;19.144;2023-02-15T09:03:44;7.10;99.90
45619;DHT22;31343;47.520;19.144;2023-02-15T09:06:11;7.20;99.90
45619;DHT22;31343;47.520;19.144;2023-02-15T09:08:37;6.90;99.90
45619;DHT22;31343;47.520;19.144;2023-02-15T09:11:10;6.70;99.90
45619;DHT22;31343;47.520;19.144;2023-02-15T09:13:37;6.50;99.90
45619;DHT22;31343;47.520;19.144;2023-02-15T09:16:06;6.50;99.90
45619;DHT22;31343;47.520;19.144;2023-02-15T09:18:35;6.60;99.90
45619;DHT22;31343;47.520;19.144;2023-02-15T09:21:12;6.70;99.90
45619;DHT22;31343;47.520;19.144;2023-02-15T09:23:40;6.60;99.90
45619;DHT22;31343;47.520;19.144;2023-02-15T09:26:11;6.80;99.90
45619;DHT22;31343;47.520;19.144;2023-02-15T09:28:38;6.80;99.90
45619;DHT22;31343;47.520;19.144;2023-02-15T09:31:12;6.90;99.90
45619;DHT22;31343;47.520;19.144;2023-02-15T09:33:40;7.10;99.90
45619;DHT22;31343;47.520;19.144;2023-02-15T09:36:27;7.30;99.90
45619;DHT22;31343;47.520;19.144;2023-02-15T09:39:17;7.10;99.90
45619;DHT22;31343;47.520;19.144;2023-02-15T09:58:07;7.40;99.90
45619;DHT22;31343;47.520;19.144;2023-02-15T10:03:32;7.40;99.90
45619;DHT22;31343;47.520;19.144;2023-02-15T10:08:57;7.80;99.90
45619;DHT22;31343;47.520;19.144;2023-02-15T10:12:05;7.80;99.90
45619;DHT22;31343;47.520;19.144;2023-02-15T10:28:46;8.20;99.90
45619;DHT22;31343;47.520;19.144;2023-02-15T10:31:25;8.40;99.90
45619;DHT22;31343;47.520;19.144;2023-02-15T10:37:29;8.80;99.90
45619;DHT22;31343;47.520;19.144;2023-02-15T10:43:05;8.30;99.90
45619;DHT22;31343;47.520;19.144;2023-02-15T10:50:50;9.10;99.90
45619;DHT22;31343;47.520;19.144;2023-02-15T10:56:46;9.50;99.60
45619;DHT22;31343;47.520;19.144;2023-02-15T11:01:53;9.30;99.40
45619;DHT22;31343;47.520;19.144;2023-02-15T11:04:50;9.30;99.60
45619;DHT22;31343;47.520;19.144;2023-02-15T11:07:26;9.50;99.80
45619;DHT22;31343;47.520;19.144;2023-02-15T11:10:32;9.80;99.60
45619;DHT22;31343;47.520;19.144;2023-02-15T11:13:07;9.80;98.20
45619;DHT22;31343;47.520;19.144;2023-02-15T11:15:39;9.50;99.00
45619;DHT22;31343;47.520;19.144;2023-02-15T11:20:45;10.20;98.40
45619;DHT22;31343;47.520;19.144;2023-02-15T11:23:15;10.40;97.90
45619;DHT22;31343;47.520;19.144;2023-02-15T11:25:47;10.80;97.40
45619;DHT22;31343;47.520;19.144;2023-02-15T11:28:22;10.40;96.90
45619;DHT22;31343;47.520;19.144;2023-02-15T11:30:55;10.60;97.00
45619;DHT22;31343;47.520;19.144;2023-02-15T11:33:29;10.70;97.00
45619;DHT22;31343;47.520;19.144;2023-02-15T11:36:07;11.60;96.10
45619;DHT22;31343;47.520;19.144;2023-02-15T11:38:35;12.00;95.10
45619;DHT22;31343;47.520;19.144;2023-02-15T11:41:05;12.60;93.70
45619;DHT22;31343;47.520;19.144;2023-02-15T11:43:43;12.10;93.10
45619;DHT22;31343;47.520;19.144;2023-02-15T11:46:13;11.80;94.20
45619;DHT22;31343;47.520;19.144;2023-02-15T11:48:40;12.00;93.70
45619;DHT22;31343;47.520;19.144;2023-02-15T11:51:19;11.90;93.50
45619;DHT22;31343;47.520;19.144;2023-02-15T11:53:46;12.00;93.60
45619;DHT22;31343;47.520;19.144;2023-02-15T11:56:15;12.00;93.10
45619;DHT22;31343;47.520;19.144;2023-02-15T12:03:50;13.00;92.40
45619;DHT22;31343;47.520;19.144;2023-02-15T12:06:33;13.20;91.30
45619;DHT22;31343;47.520;19.144;2023-02-15T12:09:20;13.70;90.70
45619;DHT22;31343;47.520;19.144;2023-02-15T12:11:51;13.80;90.60
45619;DHT22;31343;47.520;19.144;2023-02-15T12:14:16;14.70;88.60
45619;DHT22;31343;47.520;19.144;2023-02-15T12:16:47;14.80;87.30
45619;DHT22;31343;47.520;19.144;2023-02-15T12:21:56;15.20;82.70
45619;DHT22;31343;47.520;19.144;2023-02-15T12:24:46;15.30;83.10
45619;DHT22;31343;47.520;19.144;2023-02-15T12:27:18;14.60;83.60
45619;DHT22;31343;47.520;19.144;2023-02-15T12:32:29;14.20;85.50
45619;DHT22;31343;47.520;19.144;2023-02-15T12:35:08;14.20;86.00
45619;DHT22;31343;47.520;19.144;2023-02-15T12:37:35;15.30;83.60
45619;DHT22;31343;47.520;19.144;2023-02-15T12:40:18;15.80;80.90
45619;DHT22;31343;47.520;19.144;2023-02-15T12:42:44;15.70;81.00
45619;DHT22;31343;47.520;19.144;2023-02-15T12:45:31;15.60;80.40
45619;DHT22;31343;47.520;19.144;2023-02-15T12:48:27;15.00;80.90
45619;DHT22;31343;47.520;19.144;2023-02-15T12:51:08;14.90;80.90
45619;DHT22;31343;47.520;19.144;2023-02-15T12:53:36;14.70;81.80
45619;DHT22;31343;47.520;19.144;2023-02-15T12:56:05;14.90;81.80
45619;DHT22;31343;47.520;19.144;2023-02-15T12:58:38;15.80;80.40
45619;DHT22;31343;47.520;19.144;2023-02-15T13:01:17;15.80;80.00
45619;DHT22;31343;47.520;19.144;2023-02-15T13:04:04;15.70;80.30
45619;DHT22;31343;47.520;19.144;2023-02-15T13:06:35;16.10;77.70
45619;DHT22;31343;47.520;19.144;2023-02-15T13:09:15;16.50;77.10
45619;DHT22;31343;47.520;19.144;2023-02-15T13:11:43;16.10;77.20
45619;DHT22;31343;47.520;19.144;2023-02-15T13:14:21;16.00;77.10
45619;DHT22;31343;47.520;19.144;2023-02-15T13:16:50;15.50;78.50
45619;DHT22;31343;47.520;19.144;2023-02-15T13:19:35;15.50;79.10
45619;DHT22;31343;47.520;19.144;2023-02-15T13:22:06;15.90;78.50
45619;DHT22;31343;47.520;19.144;2023-02-15T13:24:40;16.30;76.80
45619;DHT22;31343;47.520;19.144;2023-02-15T13:27:20;15.40;78.20
45619;DHT22;31343;47.520;19.144;2023-02-15T13:29:55;14.70;80.10
45619;DHT22;31343;47.520;19.144;2023-02-15T13:32:28;14.10;82.10
45619;DHT22;31343;47.520;19.144;2023-02-15T13:34:58;13.80;82.30
45619;DHT22;31343;47.520;19.144;2023-02-15T13:40:46;14.10;83.40
45619;DHT22;31343;47.520;19.144;2023-02-15T13:43:18;14.00;83.40
45619;DHT22;31343;47.520;19.144;2023-02-15T13:48:54;14.30;83.40
45619;DHT22;31343;47.520;19.144;2023-02-15T13:54:06;13.70;83.00
45619;DHT22;31343;47.520;19.144;2023-02-15T14:11:33;14.40;81.90
45619;DHT22;31343;47.520;19.144;2023-02-15T14:17:19;13.00;85.00
45619;DHT22;31343;47.520;19.144;2023-02-15T14:19:54;12.20;87.10
45619;DHT22;31343;47.520;19.144;2023-02-15T14:25:21;11.50;90.10
45619;DHT22;31343;47.520;19.144;2023-02-15T14:30:37;10.50;92.10
45619;DHT22;31343;47.520;19.144;2023-02-15T14:33:29;10.50;92.30
45619;DHT22;31343;47.520;19.144;2023-02-15T14:35:56;10.30;92.90
45619;DHT22;31343;47.520;19.144;2023-02-15T14:49:27;10.10;94.00
45619;DHT22;31343;47.520;19.144;2023-02-15T14:52:04;10.10;93.90
45619;DHT22;31343;47.520;19.144;2023-02-15T15:02:13;9.90;95.00
45619;DHT22;31343;47.520;19.144;2023-02-15T15:07:51;9.70;95.60
45619;DHT22;31343;47.520;19.144;2023-02-15T15:15:32;9.60;96.30
45619;DHT22;31343;47.520;19.144;2023-02-15T15:20:42;9.40;97.00
45619;DHT22;31343;47.520;19.144;2023-02-15T15:25:51;9.40;97.30
45619;DHT22;31343;47.520;19.144;2023-02-15T15:31:18;9.20;98.10
45619;DHT22;31343;47.520;19.144;2023-02-15T15:37:07;9.20;98.40
45619;DHT22;31343;47.520;19.144;2023-02-15T15:50:25;8.80;99.30
45619;DHT22;31343;47.520;19.144;2023-02-15T15:52:57;8.70;99.60
45619;DHT22;31343;47.520;19.144;2023-02-15T15:55:27;8.60;99.90
45619;DHT22;31343;47.520;19.144;2023-02-15T15:57:59;8.50;99.90
45619;DHT22;31343;47.520;19.144;2023-02-15T16:01:08;8.40;99.90
45619;DHT22;31343;47.520;19.144;2023-02-15T16:03:28;8.40;99.90
45619;DHT22;31343;47.520;19.144;2023-02-15T16:05:54;8.40;99.90
45619;DHT22;31343;47.520;19.144;2023-02-15T16:08:38;8.30;99.90
45619;DHT22;31343;47.520;19.144;2023-02-15T16:11:14;8.20;99.90
45619;DHT22;31343;47.520;19.144;2023-02-15T16:13:42;8.20;99.90
45619;DHT22;31343;47.520;19.144;2023-02-15T16:16:08;8.10;99.90
45619;DHT22;31343;47.520;19.144;2023-02-15T16:18:37;8.00;99.90
45619;DHT22;31343;47.520;19.144;2023-02-15T16:21:04;8.00;99.90
45619;DHT22;31343;47.520;19.144;2023-02-15T16:29:17;7.80;99.90
45619;DHT22;31343;47.520;19.144;2023-02-15T16:31:55;7.80;99.90
45619;DHT22;31343;47.520;19.144;2023-02-15T16:34:21;7.80;99.90
45619;DHT22;31343;47.520;19.144;2023-02-15T16:36:47;7.70;99.90
45619;DHT22;31343;47.520;19.144;2023-02-15T16:39:19;7.70;99.90
45619;DHT22;31343;47.520;19.144;2023-02-15T16:41:46;7.50;99.90
45619;DHT22;31343;47.520;19.144;2023-02-15T16:44:21;7.40;99.90
45619;DHT22;31343;47.520;19.144;2023-02-15T16:46:51;7.30;99.90
45619;DHT22;31343;47.520;19.144;2023-02-15T16:49:25;7.30;99.90
45619;DHT22;31343;47.520;19.144;2023-02-15T16:52:00;7.30;99.90
45619;DHT22;31343;47.520;19.144;2023-02-15T16:54:27;7.30;99.90
45619;DHT22;31343;47.520;19.144;2023-02-15T16:56:54;7.20;99.90
45619;DHT22;31343;47.520;19.144;2023-02-15T16:59:40;7.20;99.90
45619;DHT22;31343;47.520;19.144;2023-02-15T17:02:18;7.20;99.90
45619;DHT22;31343;47.520;19.144;2023-02-15T17:04:45;7.10;99.90
45619;DHT22;31343;47.520;19.144;2023-02-15T17:07:20;7.10;99.90
45619;DHT22;31343;47.520;19.144;2023-02-15T17:09:54;7.10;99.90
45619;DHT22;31343;47.520;19.144;2023-02-15T17:12:52;7.00;99.90
45619;DHT22;31343;47.520;19.144;2023-02-15T17:15:27;6.90;99.90
45619;DHT22;31343;47.520;19.144;2023-02-15T17:17:59;6.80;99.90
45619;DHT22;31343;47.520;19.144;2023-02-15T17:20:27;6.70;99.90
45619;DHT22;31343;47.520;19.144;2023-02-15T17:22:54;6.60;99.90
45619;DHT22;31343;47.520;19.144;2023-02-15T17:25:30;6.60;99.90
45619;DHT22;31343;47.520;19.144;2023-02-15T17:27:58;6.50;99.90
45619;DHT22;31343;47.520;19.144;2023-02-15T17:30:36;6.50;99.90
45619;DHT22;31343;47.520;19.144;2023-02-15T17:33:04;6.60;99.90
45619;DHT22;31343;47.520;19.144;2023-02-15T17:36:23;6.50;99.90
45619;DHT22;31343;47.520;19.144;2023-02-15T17:41:35;6.60;99.90
45619;DHT22;31343;47.520;19.144;2023-02-15T17:44:04;6.60;99.90
45619;DHT22;31343;47.520;19.144;2023-02-15T17:46:34;6.60;99.90
45619;DHT22;31343;47.520;19.144;2023-02-15T17:49:01;6.60;99.90
45619;DHT22;31343;47.520;19.144;2023-02-15T17:51:28;6.50;99.90
45619;DHT22;31343;47.520;19.144;2023-02-15T17:53:53;6.40;99.90
45619;DHT22;31343;47.520;19.144;2023-02-15T17:56:38;6.40;99.90
45619;DHT22;31343;47.520;19.144;2023-02-15T17:59:04;6.30;99.90
45619;DHT22;31343;47.520;19.144;2023-02-15T18:01:41;6.20;99.90
45619;DHT22;31343;47.520;19.144;2023-02-15T18:04:27;6.10;99.90
45619;DHT22;31343;47.520;19.144;2023-02-15T18:07:15;6.00;99.90
45619;DHT22;31343;47.520;19.144;2023-02-15T18:10:11;6.00;99.90
45619;DHT22;31343;47.520;19.144;2023-02-15T18:12:56;5.70;99.90
45619;DHT22;31343;47.520;19.144;2023-02-15T18:15:24;5.60;99.90
45619;DHT22;31343;47.520;19.144;2023-02-15T18:17:51;5.60;99.90
45619;DHT22;31343;47.520;19.144;2023-02-15T18:22:44;5.50;99.90
45619;DHT22;31343;47.520;19.144;2023-02-15T18:25:18;5.40;99.90
45619;DHT22;31343;47.520;19.144;2023-02-15T18:27:47;5.40;99.90
45619;DHT22;31343;47.520;19.144;2023-02-15T18:30:19;5.30;99.90
45619;DHT22;31343;47.520;19.144;2023-02-15T18:32:49;5.20;99.90
45619;DHT22;31343;47.520;19.144;2023-02-15T18:35:18;5.10;99.90
45619;DHT22;31343;47.520;19.144;2023-02-15T18:37:45;5.10;99.90
45619;DHT22;31343;47.520;19.144;2023-02-15T18:40:29;5.10;99.90
45619;DHT22;31343;47.520;19.144;2023-02-15T18:43:00;5.00;99.90
45619;DHT22;31343;47.520;19.144;2023-02-15T18:45:28;5.00;99.90
45619;DHT22;31343;47.520;19.144;2023-02-15T18:47:58;4.90;99.90
45619;DHT22;31343;47.520;19.144;2023-02-15T18:50:32;4.90;99.90
45619;DHT22;31343;47.520;19.144;2023-02-15T18:52:58;4.80;99.90
45619;DHT22;31343;47.520;19.144;2023-02-15T18:55:29;4.70;99.90
45619;DHT22;31343;47.520;19.144;2023-02-15T18:58:04;4.60;99.90
45619;DHT22;31343;47.520;19.144;2023-02-15T19:00:37;4.60;99.90
45619;DHT22;31343;47.520;19.144;2023-02-15T19:03:06;4.50;99.90
45619;DHT22;31343;47.520;19.144;2023-02-15T19:05:34;4.50;99.90
45619;DHT22;31343;47.520;19.144;2023-02-15T19:08:00;4.40;99.90